Time;durP1;ratioP1;P1;durP2;ratioP2;P2;SDS_P1;SDS_P2;PMS_P1;PMS_P2;Temp;Humidity;BMP_temperature;BMP_pressure;BME280_temperature;BME280_humidity;BME280_pressure;Samples;Min_cycle;Max_cycle;Signal;HPM_P1;HPM_P2
2022/04/22 00:00:19;;;;;;;22.40;17.25;;;282.30;2278.40;;;;;;5075878;28;20035;-74
2022/04/22 00:02:44;;;;;;;21.98;17.15;;;282.30;2278.40;;;;;;5075152;28;20028;-75
2022/04/22 00:05:11;;;;;;;21.92;17.83;;;282.30;2278.40;;;;;;5075030;28;20515;-74
2022/04/22 00:07:36;;;;;;;24.70;16.75;;;282.20;2278.40;;;;;;5076011;28;20020;-74
2022/04/22 00:10:05;;;;;;;21.58;16.38;;;282.30;2278.40;;;;;;5074971;28;20031;-75
2022/04/22 00:12:30;;;;;;;27.80;23.55;;;282.30;2278.40;;;;;;5074484;28;20035;-75
2022/04/22 00:14:56;;;;;;;30.02;26.80;;;282.20;2278.40;;;;;;5074842;28;20020;-73
2022/04/22 00:17:22;;;;;;;30.10;23.20;;;282.20;2278.40;;;;;;5075897;28;20101;-74
2022/04/22 00:19:48;;;;;;;31.38;24.70;;;282.20;2278.40;;;;;;5074554;28;20084;-74
2022/04/22 00:22:14;;;;;;;32.30;24.73;;;282.20;2278.40;;;;;;5074683;28;20028;-74
2022/04/22 00:24:40;;;;;;;28.30;21.67;;;282.20;2278.40;;;;;;5075700;28;20028;-73
2022/04/22 00:27:05;;;;;;;22.90;18.67;;;282.20;2278.40;;;;;;5075707;28;20032;-73
2022/04/22 00:29:31;;;;;;;21.00;17.13;;;282.20;2278.40;;;;;;5075879;28;20327;-74
2022/04/22 00:31:57;;;;;;;23.88;17.90;;;282.10;2278.40;;;;;;5074562;28;20476;-73
2022/04/22 00:34:22;;;;;;;24.85;18.33;;;282.00;2278.40;;;;;;5073942;28;20093;-74
2022/04/22 00:36:49;;;;;;;21.48;17.73;;;282.00;2278.40;;;;;;5075054;28;20102;-73
2022/04/22 00:39:14;;;;;;;32.85;24.33;;;282.00;2278.40;;;;;;5074459;28;20021;-74
2022/04/22 00:41:40;;;;;;;53.67;40.15;;;281.90;2278.40;;;;;;5075291;28;20055;-74
2022/04/22 00:44:06;;;;;;;40.45;30.73;;;281.80;2278.40;;;;;;5075642;28;20118;-74
2022/04/22 00:46:32;;;;;;;31.40;25.52;;;282.00;2278.40;;;;;;5074297;28;20122;-74
2022/04/22 00:48:57;;;;;;;28.35;25.15;;;281.90;2278.40;;;;;;5073970;28;20031;-74
2022/04/22 00:51:23;;;;;;;26.17;22.20;;;281.90;2278.40;;;;;;5075588;28;20358;-73
2022/04/22 00:53:51;;;;;;;25.95;21.35;;;281.90;2278.40;;;;;;5074106;28;20044;-76
2022/04/22 00:56:17;;;;;;;29.52;24.13;;;281.90;2278.40;;;;;;5073894;28;20432;-73
2022/04/22 00:58:46;;;;;;;26.35;19.85;;;281.90;2278.40;;;;;;5075053;28;20020;-73
2022/04/22 01:01:12;;;;;;;29.98;21.77;;;281.90;2278.40;;;;;;5073997;28;20031;-74
2022/04/22 01:03:39;;;;;;;24.05;19.10;;;282.00;2278.40;;;;;;5075234;28;20036;-73
2022/04/22 01:11:36;;;;;;;32.60;24.58;;;281.90;2278.40;;;;;;5075180;28;20527;-76
2022/04/22 01:14:07;;;;;;;24.15;21.35;;;281.90;2278.40;;;;;;5075000;28;20040;-74
2022/04/22 01:16:33;;;;;;;30.40;24.42;;;281.90;2278.40;;;;;;5073473;28;20029;-74
2022/04/22 01:18:59;;;;;;;38.33;30.48;;;281.90;2278.40;;;;;;5074635;28;20029;-73
2022/04/22 01:21:25;;;;;;;40.03;30.17;;;281.80;2278.40;;;;;;5073581;28;20021;-73
2022/04/22 01:23:51;;;;;;;41.50;32.72;;;281.90;2278.40;;;;;;5073322;28;20033;-74
2022/04/22 01:26:16;;;;;;;34.80;27.65;;;281.90;2278.40;;;;;;5073530;28;20047;-75
2022/04/22 01:28:43;;;;;;;33.92;28.65;;;281.80;2278.40;;;;;;5074453;28;20454;-75
2022/04/22 01:31:09;;;;;;;37.80;30.35;;;281.90;2278.40;;;;;;5073105;28;20020;-75
2022/04/22 01:33:35;;;;;;;37.60;30.15;;;281.90;2278.40;;;;;;5073348;28;20029;-75
2022/04/22 01:36:01;;;;;;;34.72;28.85;;;281.90;2278.40;;;;;;5073249;28;20052;-75
2022/04/22 01:38:27;;;;;;;59.38;47.33;;;281.70;2278.40;;;;;;5072735;28;20021;-74
2022/04/22 01:40:54;;;;;;;34.75;28.75;;;281.70;2278.40;;;;;;5073026;28;20024;-74
2022/04/22 01:43:21;;;;;;;36.58;27.98;;;281.80;2278.40;;;;;;5073162;28;20074;-75
2022/04/22 01:45:46;;;;;;;36.65;31.25;;;281.80;2278.40;;;;;;5072856;28;20036;-75
2022/04/22 01:48:12;;;;;;;41.90;31.75;;;281.80;2278.40;;;;;;5072591;28;20029;-74
2022/04/22 01:50:38;;;;;;;34.10;28.23;;;281.60;2278.40;;;;;;5072259;28;20021;-75
2022/04/22 01:53:06;;;;;;;39.30;29.90;;;281.70;2278.40;;;;;;5073048;28;20032;-75
2022/04/22 01:55:35;;;;;;;36.38;28.55;;;256.90;2252.80;;;;;;5074299;28;20103;-77
2022/04/22 01:58:01;;;;;;;36.28;27.10;;;256.80;2252.80;;;;;;5073976;28;20031;-74
2022/04/22 02:00:27;;;;;;;36.05;28.52;;;256.90;2252.80;;;;;;5072974;28;20423;-76
2022/04/22 02:02:53;;;;;;;36.22;28.45;;;256.90;2252.80;;;;;;5073853;28;20028;-75
2022/04/22 02:05:19;;;;;;;32.42;26.40;;;281.60;2278.40;;;;;;5072411;28;20051;-75
2022/04/22 02:07:45;;;;;;;39.58;30.45;;;281.60;2278.40;;;;;;5072744;28;20082;-76
2022/04/22 02:10:12;;;;;;;46.33;35.15;;;281.70;2278.40;;;;;;5072791;28;20028;-75
2022/04/22 02:12:37;;;;;;;44.13;33.72;;;281.70;2278.40;;;;;;5072301;28;20115;-74
2022/04/22 02:15:04;;;;;;;37.63;31.70;;;281.70;2278.40;;;;;;5072673;28;20166;-76
2022/04/22 02:17:29;;;;;;;39.38;30.42;;;281.70;2278.40;;;;;;5073951;28;20036;-75
2022/04/22 02:19:55;;;;;;;38.10;27.85;;;281.70;2278.40;;;;;;5073554;28;20024;-74
2022/04/22 02:22:22;;;;;;;41.08;30.75;;;281.80;2278.40;;;;;;5072895;28;20028;-75
2022/04/22 02:24:48;;;;;;;43.55;35.03;;;281.70;2278.40;;;;;;5074056;28;20029;-75
2022/04/22 02:29:58;;;;;;;31.98;25.27;;;281.70;2278.40;;;;;;5074877;28;20528;-76
2022/04/22 02:32:23;;;;;;;28.70;22.02;;;281.70;2278.40;;;;;;5073450;28;20059;-75
2022/04/22 02:34:49;;;;;;;30.92;23.25;;;281.70;2278.40;;;;;;5074770;28;20060;-76
2022/04/22 02:37:15;;;;;;;30.38;22.27;;;281.70;2278.40;;;;;;5073868;28;20044;-74
2022/04/22 02:39:41;;;;;;;31.55;23.50;;;281.70;2278.40;;;;;;5074903;28;20028;-75
2022/04/22 02:47:35;;;;;;;27.85;20.38;;;281.70;2278.40;;;;;;5074076;28;20099;-77
2022/04/22 02:50:01;;;;;;;23.40;18.90;;;281.70;2278.40;;;;;;5072969;28;20035;-74
2022/04/22 02:52:26;;;;;;;25.30;20.65;;;281.80;2278.40;;;;;;5074182;28;20066;-74
2022/04/22 02:54:54;;;;;;;25.98;19.63;;;281.80;2278.40;;;;;;5072643;28;20021;-74
2022/04/22 02:57:20;;;;;;;26.58;20.10;;;281.80;2278.40;;;;;;5074707;28;20020;-76
2022/04/22 02:59:46;;;;;;;21.63;18.92;;;281.80;2278.40;;;;;;5073385;28;20029;-76
2022/04/22 03:02:12;;;;;;;23.45;18.65;;;281.90;2278.40;;;;;;5077989;28;20028;-74
2022/04/22 03:04:38;;;;;;;23.58;18.80;;;282.00;2278.40;;;;;;5077159;28;20382;-74
2022/04/22 03:07:04;;;;;;;24.98;18.60;;;281.90;2278.40;;;;;;5077533;28;20031;-74
2022/04/22 03:09:30;;;;;;;22.98;19.55;;;281.80;2278.40;;;;;;5075957;28;20029;-75
2022/04/22 03:11:56;;;;;;;24.25;19.27;;;281.90;2278.40;;;;;;5076166;28;20526;-75
2022/04/22 03:14:21;;;;;;;23.58;19.38;;;281.80;2278.40;;;;;;5076834;28;20024;-74
2022/04/22 03:16:47;;;;;;;25.80;20.00;;;281.90;2278.40;;;;;;5076404;28;20051;-74
2022/04/22 03:19:13;;;;;;;22.90;18.92;;;282.00;2278.40;;;;;;5076520;28;20053;-74
2022/04/22 03:21:39;;;;;;;25.00;19.92;;;281.90;2278.40;;;;;;5076184;28;20032;-74
2022/04/22 03:24:04;;;;;;;24.45;19.27;;;282.00;2278.40;;;;;;5077368;28;20031;-73
2022/04/22 03:26:30;;;;;;;28.80;21.27;;;281.90;2278.40;;;;;;5075994;28;20024;-74
2022/04/22 03:28:57;;;;;;;25.88;21.23;;;281.90;2278.40;;;;;;5075508;28;20070;-74
2022/04/22 03:31:23;;;;;;;26.58;21.38;;;281.80;2278.40;;;;;;5075694;28;20024;-76
2022/04/22 03:33:49;;;;;;;32.25;24.95;;;281.90;2278.40;;;;;;5075611;28;20485;-74
2022/04/22 03:36:15;;;;;;;35.08;25.88;;;281.90;2278.40;;;;;;5076652;28;20050;-74
2022/04/22 03:38:43;;;;;;;31.40;24.83;;;281.80;2278.40;;;;;;5076739;28;20059;-74
2022/04/22 03:41:10;;;;;;;30.70;25.23;;;281.90;2278.40;;;;;;5075138;28;20044;-74
2022/04/22 03:43:36;;;;;;;31.10;24.13;;;281.90;2278.40;;;;;;5075316;28;20033;-73
2022/04/22 03:46:02;;;;;;;39.50;21.08;;;281.80;2278.40;;;;;;5076766;28;20021;-75
2022/04/22 03:48:28;;;;;;;32.90;23.35;;;281.70;2278.40;;;;;;5075394;28;20436;-75
2022/04/22 03:50:53;;;;;;;26.52;21.48;;;281.70;2278.40;;;;;;5076671;28;20027;-76
2022/04/22 03:53:20;;;;;;;24.83;20.58;;;281.60;2278.40;;;;;;5076084;28;20040;-74
2022/04/22 03:55:45;;;;;;;28.35;22.00;;;281.60;2278.40;;;;;;5080056;28;20092;-73
2022/04/22 03:58:12;;;;;;;27.40;20.67;;;281.60;2278.40;;;;;;5080519;28;20051;-74
2022/04/22 04:00:42;;;;;;;25.98;21.30;;;281.70;2278.40;;;;;;5082140;28;20031;-75
2022/04/22 04:03:13;;;;;;;25.45;20.60;;;281.70;2278.40;;;;;;5080689;28;20035;-74
2022/04/22 04:05:40;;;;;;;23.02;19.98;;;281.70;2278.40;;;;;;5080380;28;20025;-73
2022/04/22 04:08:09;;;;;;;26.80;20.33;;;281.70;2278.40;;;;;;5081842;28;20028;-73
2022/04/22 04:16:03;;;;;;;29.95;22.63;;;281.70;2278.40;;;;;;5076228;28;20043;-74
2022/04/22 04:18:34;;;;;;;30.00;24.52;;;281.70;2278.40;;;;;;5074751;28;20036;-73
2022/04/22 04:23:47;;;;;;;26.92;22.85;;;281.70;2278.40;;;;;;5076118;28;20107;-74
2022/04/22 04:26:15;;;;;;;28.25;23.25;;;281.60;2278.40;;;;;;5074657;28;20377;-74
2022/04/22 04:28:42;;;;;;;27.20;22.98;;;281.60;2278.40;;;;;;5074703;28;20020;-75
2022/04/22 04:31:08;;;;;;;30.02;23.00;;;281.60;2278.40;;;;;;5074645;28;20555;-75
2022/04/22 04:33:37;;;;;;;31.85;25.38;;;281.70;2278.40;;;;;;5075748;28;20035;-74
2022/04/22 04:36:03;;;;;;;31.60;24.13;;;281.70;2278.40;;;;;;5075834;28;20029;-74
2022/04/22 04:38:29;;;;;;;33.30;24.30;;;281.80;2278.40;;;;;;5074321;28;20373;-74
2022/04/22 04:40:55;;;;;;;29.00;23.52;;;281.80;2278.40;;;;;;5074383;28;20026;-74
2022/04/22 04:43:22;;;;;;;31.05;23.25;;;281.80;2278.40;;;;;;5074593;28;20504;-74
2022/04/22 04:45:51;;;;;;;29.75;23.90;;;281.80;2278.40;;;;;;5075122;28;20374;-73
2022/04/22 04:48:18;;;;;;;30.67;24.17;;;281.80;2278.40;;;;;;5075311;28;20457;-74
2022/04/22 04:50:44;;;;;;;34.38;25.73;;;281.90;2278.40;;;;;;5075562;28;20051;-74
2022/04/22 04:53:11;;;;;;;33.28;25.05;;;281.90;2278.40;;;;;;5073846;28;20486;-73
2022/04/22 04:55:38;;;;;;;29.48;24.65;;;281.90;2278.40;;;;;;5075266;28;20063;-74
2022/04/22 04:58:04;;;;;;;33.42;25.33;;;282.00;2022.40;;;;;;5074122;28;20390;-74
2022/04/22 05:00:30;;;;;;;28.95;22.63;;;282.00;2278.40;;;;;;5073816;28;20461;-74
2022/04/22 05:02:56;;;;;;;27.92;23.02;;;282.00;2278.40;;;;;;5074078;28;20036;-75
2022/04/22 05:05:22;;;;;;;32.83;25.50;;;281.90;2278.40;;;;;;5074982;28;20031;-74
2022/04/22 05:07:53;;;;;;;33.15;28.40;;;282.00;2278.40;;;;;;5074892;28;20032;-75
2022/04/22 05:10:19;;;;;;;40.50;27.92;;;282.00;2278.40;;;;;;5073913;28;20067;-74
2022/04/22 05:12:46;;;;;;;33.50;25.73;;;282.00;2278.40;;;;;;5075023;28;20038;-74
2022/04/22 05:15:13;;;;;;;27.40;22.83;;;281.80;2278.40;;;;;;5074779;28;20027;-74
2022/04/22 05:17:40;;;;;;;28.55;21.75;;;282.00;2278.40;;;;;;5073821;28;20035;-74
2022/04/22 05:20:10;;;;;;;26.83;21.42;;;282.00;2278.40;;;;;;5073641;28;20024;-74
2022/04/22 05:22:36;;;;;;;30.30;23.52;;;282.10;2278.40;;;;;;5074531;28;20028;-75
2022/04/22 05:25:04;;;;;;;41.80;33.88;;;282.10;2278.40;;;;;;5074742;28;20432;-73
2022/04/22 05:27:31;;;;;;;40.85;33.50;;;282.10;2278.40;;;;;;5074571;28;20028;-74
2022/04/22 05:32:42;;;;;;;33.55;25.35;;;282.20;2278.40;;;;;;5074627;28;20055;-75
2022/04/22 05:35:09;;;;;;;39.97;28.90;;;282.20;2278.40;;;;;;5074485;28;20029;-74
2022/04/22 05:37:55;;;;;;;40.05;30.85;;;282.20;2278.40;;;;;;5073286;28;20024;-74
2022/04/22 05:40:25;;;;;;;38.42;28.90;;;282.20;2278.40;;;;;;5073304;28;20021;-73
2022/04/22 05:42:53;;;;;;;32.53;25.88;;;282.20;2278.40;;;;;;5072492;28;20048;-73
2022/04/22 05:45:20;;;;;;;31.80;24.90;;;282.20;2278.40;;;;;;5073172;28;20025;-75
2022/04/22 05:47:46;;;;;;;26.65;22.90;;;282.30;1894.40;;;;;;5073142;28;20385;-75
2022/04/22 05:50:14;;;;;;;21.25;17.67;;;282.40;2278.40;;;;;;5072764;28;20078;-73
2022/04/22 05:52:41;;;;;;;21.75;17.13;;;282.40;2278.40;;;;;;5072800;28;20127;-73
2022/04/22 05:55:13;;;;;;;28.02;22.63;;;282.50;2278.40;;;;;;5072943;28;20041;-75
2022/04/22 05:57:39;;;;;;;24.33;19.50;;;307.20;2304.00;;;;;;5072691;28;20070;-75
2022/04/22 06:00:08;;;;;;;27.88;21.38;;;307.20;2304.00;;;;;;5072813;28;20028;-74
2022/04/22 06:02:34;;;;;;;33.08;25.27;;;307.30;2304.00;;;;;;5073706;28;20020;-74
2022/04/22 06:05:00;;;;;;;32.90;24.88;;;307.30;2304.00;;;;;;5072790;28;20097;-75
2022/04/22 06:07:26;;;;;;;42.45;35.80;;;307.40;2304.00;;;;;;5072891;28;20115;-74
2022/04/22 06:12:36;;;;;;;45.97;34.85;;;307.40;2304.00;;;;;;5073731;28;20040;-75
2022/04/22 06:15:04;;;;;;;40.67;31.90;;;307.40;2304.00;;;;;;5072694;28;20024;-75
2022/04/22 06:17:31;;;;;;;45.45;34.15;;;307.50;2304.00;;;;;;5072283;28;20123;-76
2022/04/22 06:19:58;;;;;;;44.28;34.97;;;307.50;2304.00;;;;;;5072549;28;20028;-74
2022/04/22 06:22:25;;;;;;;43.15;34.72;;;307.60;2304.00;;;;;;5072506;28;20033;-73
2022/04/22 06:24:51;;;;;;;42.40;36.10;;;307.70;2304.00;;;;;;5073499;28;20031;-72
2022/04/22 06:27:28;;;;;;;50.13;39.95;;;307.70;2304.00;;;;;;5072757;28;20040;-74
2022/04/22 06:29:55;;;;;;;50.80;41.53;;;307.80;2304.00;;;;;;5074038;28;20031;-73
2022/04/22 06:32:23;;;;;;;44.38;35.70;;;307.80;2304.00;;;;;;5072013;28;20036;-75
2022/04/22 06:34:52;;;;;;;40.53;32.08;;;308.00;2304.00;;;;;;5071586;28;20021;-73
2022/04/22 06:37:18;;;;;;;28.25;22.50;;;308.10;2304.00;;;;;;5073699;28;20050;-76
2022/04/22 06:48:00;;;;;;;24.92;17.90;;;333.10;2329.60;;;;;;5073624;28;20035;-75
2022/04/22 06:50:26;;;;;;;23.58;17.10;;;333.20;2329.60;;;;;;5072302;28;20028;-74
2022/04/22 06:52:52;;;;;;;24.52;18.63;;;333.30;2329.60;;;;;;5071837;28;20497;-75
2022/04/22 06:55:18;;;;;;;28.30;21.30;;;333.40;2329.60;;;;;;5072237;28;20027;-74
2022/04/22 06:57:49;;;;;;;32.08;23.65;;;333.50;2329.60;;;;;;5073668;28;20024;-76
2022/04/22 07:00:16;;;;;;;21.67;16.02;;;333.60;2329.60;;;;;;5071841;28;20025;-74
2022/04/22 07:02:42;;;;;;;22.35;15.82;;;333.70;2329.60;;;;;;5072074;28;20032;-75
2022/04/22 07:05:09;;;;;;;21.23;15.43;;;333.70;2329.60;;;;;;5072092;28;20473;-74
2022/04/22 07:07:35;;;;;;;24.15;15.23;;;358.40;2329.60;;;;;;5071688;28;20082;-75
2022/04/22 07:10:01;;;;;;;21.52;13.20;;;358.50;2329.60;;;;;;5072114;28;20060;-75
2022/04/22 07:12:28;;;;;;;16.35;11.82;;;358.70;2329.60;;;;;;5071707;28;20123;-77
2022/04/22 07:15:04;;;;;;;21.58;11.77;;;358.80;2329.60;;;;;;5073318;28;20031;-77
2022/04/22 07:17:34;;;;;;;20.02;12.45;;;358.90;2329.60;;;;;;5073334;28;20029;-74
2022/04/22 07:20:01;;;;;;;17.55;12.55;;;358.90;2329.60;;;;;;5073333;28;20078;-76
2022/04/22 07:22:27;;;;;;;19.55;12.30;;;359.10;2329.60;;;;;;5071680;28;20032;-77
2022/04/22 07:24:56;;;;;;;19.38;11.45;;;359.20;2329.60;;;;;;5071874;28;20028;-75
2022/04/22 07:27:27;;;;;;;15.10;10.85;;;359.30;2329.60;;;;;;5071507;28;20021;-76
2022/04/22 07:29:59;;;;;;;17.58;10.68;;;384.10;2329.60;;;;;;5071950;28;20448;-77
2022/04/22 07:32:26;;;;;;;14.68;10.00;;;384.30;2329.60;;;;;;5071797;28;20029;-76
2022/04/22 07:34:54;;;;;;;10.30;8.05;;;384.20;2329.60;;;;;;5071511;28;20489;-75
2022/04/22 07:37:21;;;;;;;15.13;9.20;;;384.50;2329.60;;;;;;5071826;28;20115;-76
2022/04/22 07:39:47;;;;;;;11.00;8.13;;;384.70;2329.60;;;;;;5073025;28;20029;-76
2022/04/22 07:42:16;;;;;;;16.83;8.95;;;384.90;2329.60;;;;;;5071105;28;20101;-75
2022/04/22 07:47:29;;;;;;;13.93;8.45;;;409.60;2355.20;;;;;;5075197;28;20108;-76
2022/04/22 07:49:55;;;;;;;12.73;7.65;;;409.70;2355.20;;;;;;5076726;28;20056;-78
2022/04/22 07:52:21;;;;;;;15.75;8.55;;;409.80;2355.20;;;;;;5075325;28;20040;-75
2022/04/22 07:54:47;;;;;;;13.43;7.78;;;409.80;2355.20;;;;;;5074931;28;20051;-76
2022/04/22 07:57:12;;;;;;;11.52;8.45;;;410.00;2355.20;;;;;;5075351;28;20390;-77
2022/04/22 07:59:39;;;;;;;16.45;9.20;;;410.20;2355.20;;;;;;5075274;28;20034;-78
2022/04/22 08:02:05;;;;;;;10.38;6.90;;;410.30;2355.20;;;;;;5075892;28;20377;-75
2022/04/22 08:04:31;;;;;;;12.80;7.72;;;410.40;2355.20;;;;;;5075201;28;20029;-77
2022/04/22 08:06:57;;;;;;;12.43;7.75;;;410.50;2355.20;;;;;;5074998;28;20028;-76
2022/04/22 08:09:22;;;;;;;13.63;7.95;;;410.50;2355.20;;;;;;5074821;28;20453;-76
2022/04/22 08:11:48;;;;;;;10.68;7.28;;;435.20;2355.20;;;;;;5075060;28;20024;-76
2022/04/22 08:14:14;;;;;;;15.27;7.53;;;410.50;2355.20;;;;;;5075883;28;20033;-76
2022/04/22 08:16:40;;;;;;;16.27;9.88;;;410.50;2355.20;;;;;;5074702;28;20028;-76
2022/04/22 08:19:06;;;;;;;15.80;8.95;;;410.40;2355.20;;;;;;5076225;28;20029;-75
2022/04/22 08:21:34;;;;;;;22.23;10.52;;;410.30;2355.20;;;;;;5076180;28;20370;-75
2022/04/22 08:24:04;;;;;;;14.10;8.60;;;410.30;2355.20;;;;;;5074567;28;20032;-76
2022/04/22 08:26:32;;;;;;;11.13;7.28;;;410.30;2355.20;;;;;;5074654;28;20488;-77
2022/04/22 08:28:58;;;;;;;15.80;8.88;;;410.20;2355.20;;;;;;5074707;28;20465;-75
2022/04/22 08:31:24;;;;;;;15.05;8.32;;;410.30;2355.20;;;;;;5074703;28;20170;-78
2022/04/22 08:33:55;;;;;;;24.17;15.23;;;410.30;2355.20;;;;;;5075891;28;20107;-76
2022/04/22 08:36:21;;;;;;;17.15;8.23;;;410.30;2355.20;;;;;;5075949;28;20028;-75
2022/04/22 08:38:47;;;;;;;10.95;7.63;;;410.30;2355.20;;;;;;5075543;28;20032;-77
2022/04/22 08:41:15;;;;;;;19.95;9.77;;;410.30;2355.20;;;;;;5074258;28;20413;-75
2022/04/22 08:43:41;;;;;;;11.38;7.65;;;410.40;2355.20;;;;;;5075415;28;20050;-75
2022/04/22 08:51:40;;;;;;;12.90;7.22;;;410.40;2355.20;;;;;;5075157;28;20428;-75
2022/04/22 08:54:08;;;;;;;12.88;8.55;;;410.40;2355.20;;;;;;5074135;28;20385;-75
2022/04/22 08:56:35;;;;;;;12.13;7.50;;;410.50;2355.20;;;;;;5074224;28;20507;-76
2022/04/22 08:59:02;;;;;;;16.13;9.95;;;410.50;2355.20;;;;;;5074559;28;20026;-75
2022/04/22 09:01:28;;;;;;;13.27;7.88;;;435.50;2355.20;;;;;;5075707;28;20032;-74
2022/04/22 09:03:54;;;;;;;11.45;7.57;;;435.90;2355.20;;;;;;5075319;28;20380;-77
2022/04/22 09:06:22;;;;;;;12.20;7.22;;;460.80;2380.80;;;;;;5073665;28;20036;-76
2022/04/22 09:08:50;;;;;;;15.30;8.55;;;461.10;2380.80;;;;;;5074007;28;20047;-75
2022/04/22 09:11:16;;;;;;;13.25;6.85;;;461.40;2380.80;;;;;;5073937;28;20359;-76
2022/04/22 09:13:42;;;;;;;17.90;6.95;;;461.50;2380.80;;;;;;5074786;28;20036;-76
2022/04/22 09:16:09;;;;;;;13.40;7.75;;;461.60;2380.80;;;;;;5074836;28;20030;-77
2022/04/22 09:18:39;;;;;;;13.00;6.40;;;461.70;2380.80;;;;;;5073557;28;20025;-75
2022/04/22 09:21:07;;;;;;;12.35;7.18;;;486.40;2380.80;;;;;;5073745;28;20363;-77
2022/04/22 09:23:36;;;;;;;13.13;7.43;;;486.50;2380.80;;;;;;5073604;28;20086;-76
2022/04/22 09:26:04;;;;;;;12.35;8.30;;;486.60;2380.80;;;;;;5073354;28;20029;-76
2022/04/22 09:28:30;;;;;;;14.65;7.97;;;486.70;2380.80;;;;;;5073548;28;20466;-76
2022/04/22 09:31:02;;;;;;;12.68;6.68;;;486.70;2380.80;;;;;;5073549;28;20025;-76
2022/04/22 09:33:54;;;;;;;8.77;5.97;;;486.90;2380.80;;;;;;5073130;28;20466;-77
2022/04/22 09:45:04;;;;;;;13.25;4.88;;;512.10;2329.60;;;;;;5074336;28;20071;-76
2022/04/22 09:47:31;;;;;;;10.93;6.07;;;512.40;2355.20;;;;;;5074216;28;20056;-78
2022/04/22 09:50:10;;;;;;;13.50;4.90;;;512.60;2380.80;;;;;;5073139;28;20032;-75
2022/04/22 09:52:38;;;;;;;13.15;5.18;;;512.70;2227.20;;;;;;5073032;28;20086;-77
2022/04/22 09:55:08;;;;;;;11.02;6.50;;;512.60;2201.60;;;;;;5072804;28;20121;-73
2022/04/22 09:57:57;;;;;;;10.27;4.35;;;512.90;2252.80;;;;;;5074594;28;20075;-75
2022/04/22 10:00:25;;;;;;;8.45;4.65;;;537.60;2252.80;;;;;;5072875;28;20025;-74
2022/04/22 10:02:53;;;;;;;14.82;5.10;;;537.60;2227.20;;;;;;5073075;28;20377;-74
2022/04/22 10:05:24;;;;;;;11.00;4.47;;;538.00;2201.60;;;;;;5072870;28;20029;-74
2022/04/22 10:07:57;;;;;;;8.15;5.03;;;538.30;2227.20;;;;;;5074099;28;20044;-74
2022/04/22 10:10:35;;;;;;;11.73;4.80;;;538.20;2124.80;;;;;;5071981;28;20081;-76
2022/04/22 10:13:03;;;;;;;9.52;5.25;;;538.30;2124.80;;;;;;5073684;28;20037;-76
2022/04/22 10:15:33;;;;;;;10.88;4.47;;;538.40;2124.80;;;;;;5073918;28;20028;-74
2022/04/22 10:17:59;;;;;;;7.68;4.55;;;563.20;2073.60;;;;;;5072580;28;20028;-75
2022/04/22 10:20:26;;;;;;;8.27;4.13;;;563.20;2124.80;;;;;;5072676;28;20031;-75
2022/04/22 10:22:53;;;;;;;17.13;6.45;;;563.20;2073.60;;;;;;5072289;28;20031;-76
2022/04/22 10:25:19;;;;;;;15.57;5.28;;;563.40;2073.60;;;;;;5072679;28;20035;-76
2022/04/22 10:27:46;;;;;;;20.67;12.43;;;563.80;2099.20;;;;;;5072512;28;20120;-76
2022/04/22 10:30:13;;;;;;;10.43;4.40;;;563.60;2048.00;;;;;;5072200;28;20039;-77
2022/04/22 10:32:41;;;;;;;11.45;5.38;;;563.60;2022.40;;;;;;5072394;28;20036;-76
2022/04/22 10:35:07;;;;;;;12.20;4.65;;;563.70;2022.40;;;;;;5072536;28;20031;-75
2022/04/22 10:37:34;;;;;;;9.90;3.60;;;563.60;1996.80;;;;;;5072178;28;20461;-75
2022/04/22 10:40:02;;;;;;;12.35;4.90;;;563.60;1996.80;;;;;;5072304;28;20036;-75
2022/04/22 10:42:38;;;;;;;6.18;3.70;;;563.50;1996.80;;;;;;5071735;28;20405;-74
2022/04/22 10:48:01;;;;;;;11.23;4.10;;;563.60;1996.80;;;;;;5064830;28;20469;-74
2022/04/22 10:50:34;;;;;;;9.85;4.60;;;563.70;1996.80;;;;;;5072023;28;20028;-74
2022/04/22 10:53:09;;;;;;;13.57;3.80;;;563.70;1971.20;;;;;;5072217;28;20037;-74
2022/04/22 10:55:40;;;;;;;10.20;4.47;;;563.80;1920.00;;;;;;5072209;28;20021;-74
2022/04/22 10:58:20;;;;;;;9.82;3.30;;;564.10;1945.60;;;;;;5071852;28;20048;-75
2022/04/22 11:00:48;;;;;;;8.00;3.50;;;564.00;1920.00;;;;;;5072084;28;20074;-73
2022/04/22 11:03:31;;;;;;;12.23;3.80;;;564.10;1894.40;;;;;;5072134;28;20035;-74
2022/04/22 11:05:58;;;;;;;12.82;4.60;;;588.90;1894.40;;;;;;5073507;28;20025;-75
2022/04/22 11:08:28;;;;;;;10.02;3.65;;;588.90;1894.40;;;;;;5073073;28;20359;-75
2022/04/22 11:10:54;;;;;;;11.30;4.22;;;588.80;1868.80;;;;;;5071873;28;20020;-74
2022/04/22 11:13:28;;;;;;;8.82;4.30;;;588.90;1894.40;;;;;;5072047;28;20033;-75
2022/04/22 11:16:24;;;;;;;12.85;3.47;;;589.00;1843.20;;;;;;5073375;28;20021;-74
2022/04/22 11:19:11;;;;;;;14.02;4.13;;;588.90;1843.20;;;;;;5067773;28;20127;-73
2022/04/22 11:21:37;;;;;;;10.38;4.10;;;589.30;1843.20;;;;;;5073526;28;20032;-74
2022/04/22 11:24:15;;;;;;;8.32;3.70;;;589.30;1843.20;;;;;;5075889;28;20059;-73
2022/04/22 11:26:42;;;;;;;9.30;4.47;;;589.50;1817.60;;;;;;5075581;28;20050;-75
2022/04/22 11:29:10;;;;;;;12.82;3.72;;;589.60;1817.60;;;;;;5075885;28;20370;-74
2022/04/22 11:31:36;;;;;;;10.77;4.13;;;614.40;1766.40;;;;;;5075455;28;20485;-74
2022/04/22 11:34:16;;;;;;;8.57;4.60;;;614.40;1766.40;;;;;;5075645;28;20445;-75
2022/04/22 11:36:47;;;;;;;10.77;3.25;;;614.60;1792.00;;;;;;5076732;28;20107;-76
2022/04/22 11:39:15;;;;;;;8.82;4.07;;;589.60;1766.40;;;;;;5076234;28;20059;-75
2022/04/22 11:42:01;;;;;;;7.63;3.92;;;614.40;1766.40;;;;;;5075190;28;20048;-76
2022/04/22 11:44:30;;;;;;;7.28;3.70;;;589.70;1766.40;;;;;;5077193;28;20030;-75
2022/04/22 11:47:01;;;;;;;14.30;3.95;;;589.70;1740.80;;;;;;5076160;28;20374;-76
2022/04/22 11:49:31;;;;;;;16.95;4.22;;;589.70;1766.40;;;;;;5076797;28;20035;-77
2022/04/22 11:51:57;;;;;;;14.32;5.85;;;614.70;1715.20;;;;;;5076930;28;20469;-75
2022/04/22 11:54:24;;;;;;;11.48;4.00;;;614.70;1715.20;;;;;;5074975;28;20060;-73
2022/04/22 11:56:54;;;;;;;8.93;3.97;;;614.70;1715.20;;;;;;5076539;28;20028;-73
2022/04/22 11:59:21;;;;;;;11.57;3.95;;;614.60;1715.20;;;;;;5075298;28;20028;-77
2022/04/22 12:10:01;;;;;;;7.88;3.60;;;614.60;1689.60;;;;;;5076174;28;20043;-74
2022/04/22 12:12:29;;;;;;;12.25;3.33;;;614.90;1689.60;;;;;;5076012;28;20111;-74
2022/04/22 12:15:02;;;;;;;12.77;3.03;;;614.80;1664.00;;;;;;5074739;28;20024;-75
2022/04/22 12:17:28;;;;;;;15.70;3.33;;;614.80;1689.60;;;;;;5074235;28;20024;-76
2022/04/22 12:19:54;;;;;;;9.00;3.58;;;614.90;1689.60;;;;;;5074397;28;20029;-76
2022/04/22 12:22:22;;;;;;;11.10;3.20;;;615.10;1664.00;;;;;;5075526;28;20033;-76
2022/04/22 12:25:11;;;;;;;10.32;3.22;;;615.10;1664.00;;;;;;5076127;28;20035;-76
2022/04/22 12:27:38;;;;;;;7.53;3.67;;;640.00;1664.00;;;;;;5074234;28;20063;-75
2022/04/22 12:30:09;;;;;;;11.35;4.50;;;615.20;1638.40;;;;;;5074669;28;20473;-75
2022/04/22 12:32:37;;;;;;;13.68;5.90;;;615.30;1664.00;;;;;;5073801;28;20040;-76
2022/04/22 12:35:17;;;;;;;14.80;5.35;;;640.10;1638.40;;;;;;5075422;28;20369;-76
2022/04/22 12:37:53;;;;;;;25.20;14.82;;;615.30;1612.80;;;;;;5076144;28;20062;-76
2022/04/22 12:40:21;;;;;;;17.13;5.50;;;615.10;1612.80;;;;;;5075804;28;20032;-76
2022/04/22 12:42:47;;;;;;;18.27;8.48;;;615.20;1612.80;;;;;;5073651;28;20490;-74
2022/04/22 12:54:03;;;;;;;6.65;2.95;;;640.10;1587.20;;;;;;5075293;28;20035;-75
2022/04/22 12:56:29;;;;;;;10.65;3.80;;;615.30;1587.20;;;;;;5074986;28;20540;-74
2022/04/22 12:58:59;;;;;;;9.48;3.97;;;615.30;1587.20;;;;;;5073873;28;20119;-75
2022/04/22 13:01:38;;;;;;;14.85;6.80;;;640.10;1612.80;;;;;;5075588;28;20031;-75
2022/04/22 13:04:05;;;;;;;10.43;4.35;;;640.20;1561.60;;;;;;5075065;28;20029;-75
2022/04/22 13:06:47;;;;;;;12.02;3.63;;;640.50;1561.60;;;;;;5073974;28;20056;-76
2022/04/22 13:09:15;;;;;;;13.75;4.00;;;640.20;1561.60;;;;;;5073997;28;20071;-75
2022/04/22 13:11:41;;;;;;;9.45;3.67;;;640.50;1561.60;;;;;;5074708;28;20032;-74
2022/04/22 13:14:08;;;;;;;12.18;5.97;;;640.20;1536.00;;;;;;5073726;28;20385;-75
2022/04/22 13:16:34;;;;;;;9.27;4.00;;;640.40;1536.00;;;;;;5074482;28;20035;-74
2022/04/22 13:19:01;;;;;;;16.40;4.30;;;640.60;1561.60;;;;;;5073761;28;20028;-75